createdAt,value
2023-03-13T00:00:10.031Z,100.00
2023-03-13T00:02:38.320Z,100.00
2023-03-13T00:05:06.056Z,100.00
2023-03-13T00:07:36.381Z,100.00
2023-03-13T00:10:18.820Z,100.00
2023-03-13T00:12:46.286Z,100.00
2023-03-13T00:15:18.209Z,100.00
2023-03-13T00:17:50.743Z,100.00
2023-03-13T00:20:18.565Z,100.00
2023-03-13T00:22:53.250Z,100.00
2023-03-13T00:25:21.495Z,100.00
2023-03-13T00:27:50.720Z,100.00
2023-03-13T00:30:23.314Z,100.00
2023-03-13T00:32:56.630Z,100.00
2023-03-13T00:35:24.295Z,100.00
2023-03-13T00:37:52.365Z,100.00
2023-03-13T00:40:21.619Z,100.00
2023-03-13T00:42:53.759Z,100.00
2023-03-13T00:45:21.331Z,100.00
2023-03-13T00:47:50.488Z,100.00
2023-03-13T00:50:18.171Z,100.00
2023-03-13T00:52:45.690Z,100.00
2023-03-13T00:55:13.329Z,100.00
2023-03-13T00:57:41.476Z,100.00
2023-03-13T01:00:09.973Z,100.00
2023-03-13T01:02:43.284Z,100.00
2023-03-13T01:05:13.348Z,100.00
2023-03-13T01:07:40.998Z,100.00
2023-03-13T01:10:09.493Z,100.00
2023-03-13T01:12:37.795Z,100.00
2023-03-13T01:15:06.015Z,100.00
2023-03-13T01:17:36.881Z,100.00
2023-03-13T01:20:08.055Z,100.00
2023-03-13T01:22:36.859Z,100.00
2023-03-13T01:25:10.556Z,100.00
2023-03-13T01:27:38.794Z,100.00
2023-03-13T01:30:07.086Z,100.00
2023-03-13T01:32:36.150Z,100.00
2023-03-13T01:35:04.081Z,100.00
2023-03-13T01:37:31.702Z,100.00
2023-03-13T01:39:59.510Z,100.00
2023-03-13T01:42:26.947Z,100.00
2023-03-13T01:44:57.720Z,100.00
2023-03-13T01:47:26.822Z,100.00
2023-03-13T01:50:04.257Z,100.00
2023-03-13T01:52:51.640Z,100.00
2023-03-13T01:55:33.941Z,100.00
2023-03-13T01:58:01.948Z,100.00
2023-03-13T02:00:34.744Z,100.00
2023-03-13T02:03:11.907Z,100.00
2023-03-13T02:05:41.447Z,100.00
2023-03-13T02:08:15.817Z,100.00
2023-03-13T02:10:55.143Z,100.00
2023-03-13T02:13:23.002Z,100.00
2023-03-13T02:15:52.447Z,100.00
2023-03-13T02:18:20.090Z,100.00
2023-03-13T02:20:51.592Z,100.00
2023-03-13T02:23:59.538Z,100.00
2023-03-13T02:26:27.467Z,100.00
2023-03-13T02:28:55.780Z,100.00
2023-03-13T02:31:24.405Z,100.00
2023-03-13T02:33:52.014Z,100.00
2023-03-13T02:36:21.564Z,100.00
2023-03-13T02:38:57.343Z,100.00
2023-03-13T02:41:27.029Z,100.00
2023-03-13T02:43:56.937Z,100.00
2023-03-13T02:46:25.052Z,100.00
2023-03-13T02:48:57.308Z,100.00
2023-03-13T02:51:50.528Z,100.00
2023-03-13T02:54:38.746Z,100.00
2023-03-13T02:57:07.113Z,100.00
2023-03-13T02:59:35.167Z,100.00
2023-03-13T03:02:03.422Z,100.00
2023-03-13T03:04:31.534Z,100.00
2023-03-13T03:06:59.853Z,100.00
2023-03-13T03:09:27.776Z,100.00
2023-03-13T03:12:02.965Z,100.00
2023-03-13T03:14:31.124Z,100.00
2023-03-13T03:16:58.911Z,100.00
2023-03-13T03:19:31.446Z,100.00
2023-03-13T03:22:00.489Z,100.00
2023-03-13T03:24:28.417Z,100.00
2023-03-13T03:26:55.954Z,100.00
2023-03-13T03:29:28.202Z,100.00
2023-03-13T03:31:57.031Z,100.00
2023-03-13T03:34:24.859Z,100.00
2023-03-13T03:36:56.436Z,100.00
2023-03-13T03:39:24.031Z,100.00
2023-03-13T03:41:51.934Z,100.00
2023-03-13T03:44:19.448Z,100.00
2023-03-13T03:46:58.532Z,100.00
2023-03-13T03:49:29.134Z,100.00
2023-03-13T03:51:57.017Z,100.00
2023-03-13T03:54:30.909Z,100.00
2023-03-13T03:56:59.676Z,100.00
2023-03-13T03:59:32.589Z,100.00
2023-03-13T04:02:04.653Z,100.00
2023-03-13T04:04:33.402Z,100.00
2023-03-13T04:07:22.764Z,100.00
2023-03-13T04:09:51.227Z,100.00
2023-03-13T04:12:40.713Z,100.00
2023-03-13T04:15:09.413Z,100.00
2023-03-13T04:17:38.011Z,100.00
2023-03-13T04:20:07.499Z,100.00
2023-03-13T04:22:35.302Z,100.00
2023-03-13T04:25:03.453Z,100.00
2023-03-13T04:27:33.337Z,100.00
2023-03-13T04:30:01.489Z,100.00
2023-03-13T04:33:03.980Z,100.00
2023-03-13T04:35:53.554Z,100.00
2023-03-13T04:38:30.903Z,100.00
2023-03-13T04:41:19.473Z,100.00
2023-03-13T04:44:05.544Z,100.00
2023-03-13T04:47:03.892Z,100.00
2023-03-13T04:49:49.907Z,100.00
2023-03-13T04:52:42.847Z,100.00
2023-03-13T04:55:42.448Z,100.00
2023-03-13T04:58:48.070Z,100.00
2023-03-13T05:01:35.593Z,100.00
2023-03-13T05:04:26.172Z,100.00
2023-03-13T05:07:18.165Z,100.00
2023-03-13T05:10:12.085Z,100.00
2023-03-13T05:13:12.080Z,100.00
2023-03-13T05:16:06.180Z,100.00
2023-03-13T05:18:52.424Z,100.00
2023-03-13T05:21:40.644Z,100.00
2023-03-13T05:24:28.910Z,100.00
2023-03-13T05:27:11.566Z,100.00
2023-03-13T05:29:53.010Z,100.00
2023-03-13T05:32:43.142Z,100.00
2023-03-13T05:35:37.213Z,100.00
2023-03-13T05:38:25.908Z,100.00
2023-03-13T05:41:12.705Z,100.00
2023-03-13T05:43:58.622Z,100.00
2023-03-13T05:46:52.636Z,100.00
2023-03-13T05:49:37.945Z,100.00
2023-03-13T05:52:12.157Z,100.00
2023-03-13T05:54:41.891Z,100.00
2023-03-13T05:57:32.108Z,100.00
2023-03-13T06:00:04.385Z,100.00
2023-03-13T06:02:50.074Z,100.00
2023-03-13T06:05:24.961Z,100.00
2023-03-13T06:07:53.906Z,100.00
2023-03-13T06:10:21.595Z,100.00
2023-03-13T06:12:58.924Z,100.00
2023-03-13T06:15:36.494Z,100.00
2023-03-13T06:18:14.741Z,100.00
2023-03-13T06:20:42.683Z,100.00
2023-03-13T06:23:10.289Z,100.00
2023-03-13T06:25:38.732Z,100.00
2023-03-13T06:28:06.379Z,100.00
2023-03-13T06:30:33.996Z,100.00
2023-03-13T06:33:01.680Z,100.00
2023-03-13T06:35:29.469Z,100.00
2023-03-13T06:37:56.977Z,100.00
2023-03-13T06:40:27.589Z,100.00
2023-03-13T06:42:55.624Z,98.53
2023-03-13T06:45:23.117Z,97.23
2023-03-13T06:47:52.222Z,96.69
2023-03-13T06:50:19.971Z,96.79
2023-03-13T06:52:48.776Z,96.54
2023-03-13T06:55:16.572Z,96.41
2023-03-13T06:57:44.074Z,94.77
2023-03-13T07:00:12.238Z,94.33
2023-03-13T07:02:40.269Z,94.31
2023-03-13T07:05:08.944Z,94.33
2023-03-13T07:07:37.229Z,93.24
2023-03-13T07:10:05.295Z,92.88
2023-03-13T07:12:35.532Z,92.83
2023-03-13T07:15:03.447Z,91.02
2023-03-13T07:17:35.240Z,90.51
2023-03-13T07:20:05.456Z,89.42
2023-03-13T07:22:33.233Z,90.33
2023-03-13T07:25:02.556Z,88.91
2023-03-13T07:27:30.642Z,88.41
2023-03-13T07:29:58.248Z,87.61
2023-03-13T07:32:26.094Z,87.68
2023-03-13T07:34:53.934Z,88.51
2023-03-13T07:37:21.429Z,87.48
2023-03-13T07:39:50.325Z,85.44
2023-03-13T07:42:19.477Z,83.28
2023-03-13T07:44:47.456Z,82.74
2023-03-13T07:47:14.917Z,82.55
2023-03-13T07:49:44.193Z,82.87
2023-03-13T07:52:12.057Z,82.03
2023-03-13T07:54:42.830Z,76.42
2023-03-13T07:57:10.686Z,74.88
2023-03-13T07:59:38.407Z,73.98
2023-03-13T08:02:07.286Z,71.78
2023-03-13T08:04:34.873Z,71.55
2023-03-13T08:07:02.602Z,70.57
2023-03-13T08:09:33.395Z,69.22
2023-03-13T08:12:02.019Z,70.32
2023-03-13T08:14:31.428Z,72.18
2023-03-13T08:16:59.777Z,70.22
2023-03-13T08:19:31.714Z,70.63
2023-03-13T08:21:59.329Z,70.55
2023-03-13T08:24:26.987Z,70.00
2023-03-13T08:26:54.489Z,69.39
2023-03-13T08:29:22.076Z,68.69
2023-03-13T08:31:52.720Z,68.01
2023-03-13T08:34:20.546Z,66.46
2023-03-13T08:36:48.381Z,65.93
2023-03-13T08:39:20.259Z,66.57
2023-03-13T08:41:49.171Z,64.94
2023-03-13T08:44:21.334Z,64.36
2023-03-13T08:46:52.457Z,62.62
2023-03-13T08:49:20.062Z,62.67
2023-03-13T08:51:47.942Z,63.60
2023-03-13T08:54:15.512Z,61.19
2023-03-13T08:56:44.130Z,59.05
2023-03-13T08:59:12.781Z,58.93
2023-03-13T09:01:40.349Z,60.99
2023-03-13T09:04:08.110Z,61.02
2023-03-13T09:06:37.816Z,60.10
2023-03-13T09:09:11.945Z,57.42
2023-03-13T09:11:42.213Z,56.89
2023-03-13T09:14:10.665Z,57.66
2023-03-13T09:16:38.776Z,58.53
2023-03-13T09:19:06.660Z,57.00
2023-03-13T09:21:35.841Z,60.17
2023-03-13T09:24:04.029Z,62.96
2023-03-13T09:26:31.645Z,57.61
2023-03-13T09:29:01.728Z,57.75
2023-03-13T09:31:31.594Z,60.54
2023-03-13T09:34:02.168Z,57.79
2023-03-13T09:36:30.836Z,59.95
2023-03-13T09:38:59.809Z,60.03
2023-03-13T09:41:35.195Z,59.57
2023-03-13T09:44:14.903Z,58.71
2023-03-13T09:46:54.725Z,57.58
2023-03-13T09:49:42.640Z,58.94
2023-03-13T09:52:13.667Z,58.26
2023-03-13T09:54:50.150Z,57.78
2023-03-13T09:57:40.529Z,59.31
2023-03-13T10:00:13.019Z,59.95
2023-03-13T10:02:46.673Z,59.53
2023-03-13T10:05:20.628Z,57.99
2023-03-13T10:07:48.571Z,59.66
2023-03-13T10:10:34.603Z,58.19
2023-03-13T10:13:15.638Z,57.84
2023-03-13T10:15:59.323Z,57.22
2023-03-13T10:18:27.485Z,56.43
2023-03-13T10:21:02.309Z,57.34
2023-03-13T10:23:32.830Z,56.40
2023-03-13T10:26:00.553Z,54.36
2023-03-13T10:28:28.708Z,53.82
2023-03-13T10:31:08.352Z,54.33
2023-03-13T10:33:37.275Z,55.46
2023-03-13T10:36:05.036Z,56.67
2023-03-13T10:38:47.716Z,54.00
2023-03-13T10:41:25.519Z,53.94
2023-03-13T10:43:55.776Z,54.10
2023-03-13T10:46:28.887Z,53.28
2023-03-13T10:49:00.918Z,53.41
2023-03-13T10:51:37.886Z,53.34
2023-03-13T10:54:22.015Z,53.50
2023-03-13T10:56:51.024Z,54.63
2023-03-13T10:59:22.689Z,55.08
2023-03-13T11:01:52.077Z,55.65
2023-03-13T11:04:39.954Z,55.07
2023-03-13T11:07:22.415Z,52.71
2023-03-13T11:10:01.446Z,52.51
2023-03-13T11:12:34.520Z,52.63
2023-03-13T11:15:04.083Z,51.49
2023-03-13T11:17:40.905Z,52.49
2023-03-13T11:20:19.549Z,53.97
2023-03-13T11:23:07.312Z,54.17
2023-03-13T11:26:01.214Z,53.19
2023-03-13T11:28:41.304Z,52.09
2023-03-13T11:31:12.121Z,52.26
2023-03-13T11:33:51.153Z,52.07
2023-03-13T11:36:41.001Z,53.58
2023-03-13T11:39:26.514Z,52.30
2023-03-13T11:42:38.617Z,51.06
2023-03-13T11:45:13.245Z,49.40
2023-03-13T11:48:08.644Z,49.92
2023-03-13T11:50:45.534Z,50.96
2023-03-13T11:53:35.632Z,52.85
2023-03-13T11:56:16.383Z,51.54
2023-03-13T11:58:49.556Z,50.54
2023-03-13T12:01:45.526Z,50.81
2023-03-13T12:04:26.895Z,49.94
2023-03-13T12:07:06.684Z,48.86
2023-03-13T12:09:48.445Z,48.98
2023-03-13T12:12:20.989Z,48.48
2023-03-13T12:15:06.399Z,48.81
2023-03-13T12:17:59.886Z,47.51
2023-03-13T12:20:50.171Z,46.71
2023-03-13T12:23:47.285Z,45.92
2023-03-13T12:26:21.036Z,44.74
2023-03-13T12:29:13.820Z,44.36
2023-03-13T12:31:57.772Z,43.65
2023-03-13T12:35:04.103Z,42.97
2023-03-13T12:37:34.734Z,43.16
2023-03-13T12:40:25.993Z,42.24
2023-03-13T12:43:12.488Z,41.66
2023-03-13T12:45:58.702Z,41.39
2023-03-13T12:48:45.143Z,41.99
2023-03-13T12:51:43.010Z,41.18
2023-03-13T12:54:33.470Z,42.05
2023-03-13T12:57:23.062Z,40.30
2023-03-13T12:59:56.514Z,41.09
2023-03-13T13:02:28.670Z,40.17
2023-03-13T13:04:59.834Z,39.46
2023-03-13T13:07:30.731Z,39.55
2023-03-13T13:10:19.254Z,39.54
2023-03-13T13:13:15.543Z,40.39
2023-03-13T13:15:48.157Z,41.81
2023-03-13T13:18:31.928Z,42.70
2023-03-13T13:21:02.462Z,44.56
2023-03-13T13:23:39.051Z,46.29
2023-03-13T13:26:33.661Z,46.07
2023-03-13T13:29:12.411Z,44.25
2023-03-13T13:31:52.444Z,41.88
2023-03-13T13:34:30.057Z,40.79
2023-03-13T13:37:00.507Z,38.72
2023-03-13T13:39:50.208Z,38.24
2023-03-13T13:42:30.541Z,37.59
2023-03-13T13:45:16.858Z,37.40
2023-03-13T13:47:47.461Z,35.55
2023-03-13T13:50:18.097Z,35.28
2023-03-13T13:52:48.664Z,34.99
2023-03-13T13:55:30.884Z,34.95
2023-03-13T13:58:31.206Z,39.69
2023-03-13T14:01:02.079Z,40.40
2023-03-13T14:03:33.039Z,42.92
2023-03-13T14:06:04.136Z,43.40
2023-03-13T14:08:37.235Z,43.14
2023-03-13T14:11:14.289Z,43.37
2023-03-13T14:13:42.458Z,43.64
2023-03-13T14:16:24.238Z,45.18
2023-03-13T14:18:54.380Z,45.24
2023-03-13T14:21:24.291Z,44.97
2023-03-13T14:23:52.943Z,44.75
2023-03-13T14:26:23.419Z,45.24
2023-03-13T14:29:08.130Z,45.18
2023-03-13T14:31:39.040Z,41.57
2023-03-13T14:34:09.549Z,41.56
2023-03-13T14:36:49.979Z,40.01
2023-03-13T14:39:32.623Z,40.92
2023-03-13T14:42:05.709Z,42.37
2023-03-13T14:44:35.047Z,43.39
2023-03-13T14:47:17.980Z,43.64
2023-03-13T14:49:47.351Z,44.13
2023-03-13T14:52:24.430Z,44.13
2023-03-13T14:55:04.572Z,44.94
2023-03-13T14:57:34.042Z,46.31
2023-03-13T15:00:33.867Z,46.18
2023-03-13T15:03:24.562Z,46.57
2023-03-13T15:06:09.979Z,47.24
2023-03-13T15:09:10.621Z,48.24
2023-03-13T15:11:54.959Z,47.57
2023-03-13T15:14:41.025Z,47.13
2023-03-13T15:17:23.386Z,48.38
2023-03-13T15:19:56.905Z,49.53
2023-03-13T15:22:28.945Z,48.91
2023-03-13T15:25:05.992Z,49.96
2023-03-13T15:27:36.235Z,50.30
2023-03-13T15:30:08.607Z,51.18
2023-03-13T15:32:39.933Z,50.03
2023-03-13T15:35:30.068Z,50.73
2023-03-13T15:38:00.178Z,51.94
2023-03-13T15:40:30.996Z,53.71
2023-03-13T15:42:59.605Z,54.15
2023-03-13T15:45:27.416Z,55.20
2023-03-13T15:48:00.743Z,56.24
2023-03-13T15:50:30.978Z,56.66
2023-03-13T15:53:00.869Z,56.37
2023-03-13T15:55:29.518Z,56.47
2023-03-13T15:57:57.078Z,56.59
2023-03-13T16:00:27.057Z,57.00
2023-03-13T16:02:55.658Z,56.67
2023-03-13T16:05:23.216Z,56.56
2023-03-13T16:07:51.986Z,57.28
2023-03-13T16:10:26.425Z,58.18
2023-03-13T16:13:00.058Z,58.28
2023-03-13T16:15:27.927Z,57.19
2023-03-13T16:17:56.190Z,57.78
2023-03-13T16:20:31.505Z,59.38
2023-03-13T16:23:03.793Z,59.57
2023-03-13T16:25:32.440Z,60.49
2023-03-13T16:28:00.337Z,62.33
2023-03-13T16:30:33.367Z,63.35
2023-03-13T16:33:04.206Z,61.95
2023-03-13T16:35:31.926Z,61.63
2023-03-13T16:38:02.729Z,61.91
2023-03-13T16:40:33.459Z,62.79
2023-03-13T16:43:01.386Z,62.80
2023-03-13T16:45:31.075Z,64.07
2023-03-13T16:47:59.008Z,63.75
2023-03-13T16:50:37.233Z,65.02
2023-03-13T16:53:05.877Z,66.33
2023-03-13T16:55:36.794Z,65.41
2023-03-13T16:58:05.420Z,64.53
2023-03-13T17:00:33.781Z,65.37
2023-03-13T17:03:01.697Z,65.74
2023-03-13T17:05:30.548Z,65.61
2023-03-13T17:07:58.140Z,66.57
2023-03-13T17:10:29.389Z,68.91
2023-03-13T17:12:58.030Z,71.42
2023-03-13T17:15:27.271Z,71.10
2023-03-13T17:17:56.742Z,71.98
2023-03-13T17:20:29.162Z,71.02
2023-03-13T17:23:01.168Z,71.71
2023-03-13T17:25:28.880Z,74.73
2023-03-13T17:27:56.591Z,75.07
2023-03-13T17:30:30.400Z,75.86
2023-03-13T17:32:59.159Z,77.42
2023-03-13T17:35:27.423Z,77.97
2023-03-13T17:37:55.286Z,78.87
2023-03-13T17:40:29.034Z,80.11
2023-03-13T17:42:58.363Z,80.56
2023-03-13T17:45:25.847Z,81.28
2023-03-13T17:47:54.422Z,81.38
2023-03-13T17:50:26.996Z,81.98
2023-03-13T17:52:55.547Z,82.50
2023-03-13T17:55:23.383Z,82.57
2023-03-13T17:57:53.283Z,83.54
2023-03-13T18:00:23.187Z,84.27
2023-03-13T18:02:50.891Z,83.52
2023-03-13T18:05:18.901Z,82.47
2023-03-13T18:07:48.616Z,81.82
2023-03-13T18:10:26.248Z,81.63
2023-03-13T18:12:55.304Z,82.39
2023-03-13T18:15:24.866Z,82.40
2023-03-13T18:17:53.732Z,83.29
2023-03-13T18:20:28.447Z,82.96
2023-03-13T18:23:00.817Z,82.96
2023-03-13T18:25:32.189Z,84.39
2023-03-13T18:27:59.848Z,85.02
2023-03-13T18:30:29.786Z,86.11
2023-03-13T18:32:57.474Z,87.07
2023-03-13T18:35:25.196Z,85.81
2023-03-13T18:37:53.160Z,83.88
2023-03-13T18:40:24.335Z,82.57
2023-03-13T18:42:52.090Z,79.03
2023-03-13T18:45:21.646Z,76.52
2023-03-13T18:47:49.453Z,73.50
2023-03-13T18:50:20.490Z,73.56
2023-03-13T18:52:48.265Z,75.03
2023-03-13T18:55:16.886Z,73.07
2023-03-13T18:57:44.600Z,71.72
2023-03-13T19:00:23.276Z,70.35
2023-03-13T19:02:51.755Z,69.87
2023-03-13T19:05:20.376Z,69.20
2023-03-13T19:07:49.742Z,68.68
2023-03-13T19:10:24.362Z,69.99
2023-03-13T19:12:58.236Z,69.72
2023-03-13T19:15:29.050Z,71.26
2023-03-13T19:18:02.580Z,71.46
2023-03-13T19:20:32.959Z,71.81
2023-03-13T19:23:01.111Z,72.30
2023-03-13T19:25:29.399Z,71.82
2023-03-13T19:27:57.937Z,70.92
2023-03-13T19:30:25.977Z,70.73
2023-03-13T19:32:57.686Z,70.90
2023-03-13T19:35:25.497Z,70.73
2023-03-13T19:37:53.146Z,70.88
2023-03-13T19:40:24.205Z,71.64
2023-03-13T19:42:51.955Z,71.95
2023-03-13T19:45:21.833Z,72.20
2023-03-13T19:47:49.984Z,71.98
2023-03-13T19:50:21.705Z,72.20
2023-03-13T19:52:49.638Z,72.11
2023-03-13T19:55:17.320Z,72.37
2023-03-13T19:57:45.277Z,72.64
2023-03-13T20:00:23.711Z,72.76
2023-03-13T20:02:55.404Z,73.05
2023-03-13T20:05:24.672Z,72.89
2023-03-13T20:07:54.006Z,72.89
2023-03-13T20:10:22.598Z,73.52
2023-03-13T20:12:50.096Z,74.02
2023-03-13T20:15:20.707Z,74.68
2023-03-13T20:17:49.977Z,75.07
2023-03-13T20:20:17.748Z,75.55
2023-03-13T20:22:45.868Z,76.41
2023-03-13T20:25:13.760Z,75.52
2023-03-13T20:27:49.602Z,74.55
2023-03-13T20:30:17.600Z,74.44
2023-03-13T20:32:58.519Z,73.31
2023-03-13T20:35:28.328Z,72.75
2023-03-13T20:37:57.885Z,72.25
2023-03-13T20:40:25.861Z,72.10
2023-03-13T20:42:53.397Z,71.85
2023-03-13T20:45:21.051Z,71.31
2023-03-13T20:47:48.704Z,71.40
2023-03-13T20:50:19.809Z,71.44
2023-03-13T20:52:48.842Z,71.25
2023-03-13T20:55:17.317Z,71.83
2023-03-13T20:57:45.942Z,72.37
2023-03-13T21:00:14.063Z,72.69
2023-03-13T21:02:41.564Z,73.22
2023-03-13T21:05:09.740Z,73.91
2023-03-13T21:07:37.368Z,74.11
2023-03-13T21:10:05.389Z,74.71
2023-03-13T21:12:33.968Z,75.18
2023-03-13T21:15:01.484Z,75.61
2023-03-13T21:17:29.344Z,75.79
2023-03-13T21:19:57.183Z,76.14
2023-03-13T21:22:28.501Z,76.57
2023-03-13T21:24:56.454Z,76.59
2023-03-13T21:27:24.113Z,77.14
2023-03-13T21:29:51.790Z,77.55
2023-03-13T21:32:19.833Z,77.57
2023-03-13T21:34:47.642Z,78.04
2023-03-13T21:37:17.726Z,77.62
2023-03-13T21:39:45.644Z,78.04
2023-03-13T21:42:13.781Z,77.93
2023-03-13T21:44:41.572Z,78.20
2023-03-13T21:47:13.438Z,78.65
2023-03-13T21:49:41.850Z,78.46
2023-03-13T21:52:09.626Z,78.46
2023-03-13T21:54:38.008Z,79.36
2023-03-13T21:57:05.594Z,80.27
2023-03-13T21:59:35.043Z,81.07
2023-03-13T22:02:02.723Z,81.19
2023-03-13T22:04:30.353Z,82.05
2023-03-13T22:06:58.555Z,82.77
2023-03-13T22:09:26.637Z,83.11
2023-03-13T22:11:55.964Z,83.19
2023-03-13T22:14:25.860Z,83.72
2023-03-13T22:16:53.716Z,84.56
2023-03-13T22:19:27.432Z,85.23
2023-03-13T22:21:55.062Z,85.93
2023-03-13T22:24:22.614Z,86.67
2023-03-13T22:26:50.198Z,87.62
2023-03-13T22:29:17.894Z,88.19
2023-03-13T22:31:51.803Z,88.58
2023-03-13T22:34:19.917Z,88.91
2023-03-13T22:36:47.592Z,88.91
2023-03-13T22:39:15.338Z,88.29
2023-03-13T22:41:43.727Z,87.34
2023-03-13T22:44:11.224Z,86.99
2023-03-13T22:46:40.543Z,85.99
2023-03-13T22:49:08.485Z,85.90
2023-03-13T22:51:37.474Z,85.67
2023-03-13T22:54:04.991Z,85.51
2023-03-13T22:56:32.553Z,85.66
2023-03-13T22:59:00.317Z,85.80
2023-03-13T23:01:31.330Z,85.77
2023-03-13T23:03:58.930Z,85.84
2023-03-13T23:06:26.812Z,85.77
2023-03-13T23:08:55.182Z,85.62
2023-03-13T23:11:23.159Z,86.29
2023-03-13T23:13:51.172Z,86.32
2023-03-13T23:16:19.036Z,86.43
2023-03-13T23:18:47.242Z,86.23
2023-03-13T23:21:16.290Z,86.32
2023-03-13T23:23:44.426Z,87.17
2023-03-13T23:26:14.144Z,87.04
2023-03-13T23:28:42.363Z,87.28
2023-03-13T23:31:16.921Z,87.58
2023-03-13T23:33:47.587Z,87.38
2023-03-13T23:36:18.422Z,87.76
2023-03-13T23:38:49.517Z,87.58
2023-03-13T23:41:17.133Z,87.58
2023-03-13T23:43:44.974Z,87.25
2023-03-13T23:46:27.071Z,87.20
2023-03-13T23:48:56.069Z,87.18
2023-03-13T23:51:25.362Z,87.19
2023-03-13T23:53:53.315Z,87.58
2023-03-13T23:56:20.944Z,87.97
2023-03-13T23:58:56.059Z,88.63
